createdAt,value
2018-01-27T00:00:45.113Z,101887.98
2018-01-27T00:03:12.536Z,101889.06
2018-01-27T00:05:39.926Z,101893.14
2018-01-27T00:08:07.369Z,101893.55
2018-01-27T00:10:34.754Z,101896.62
2018-01-27T00:13:02.167Z,101900.52
2018-01-27T00:15:29.556Z,101910.09
2018-01-27T00:17:56.972Z,101912.16
2018-01-27T00:20:24.362Z,101912.42
2018-01-27T00:22:52.682Z,101896.77
2018-01-27T00:25:20.084Z,101901.74
2018-01-27T00:27:47.481Z,101909.55
2018-01-27T00:30:14.896Z,101914.81
2018-01-27T00:32:42.299Z,101911.77
2018-01-27T00:35:09.699Z,101913.81
2018-01-27T00:37:37.090Z,101912.42
2018-01-27T00:40:04.511Z,101924.63
2018-01-27T00:42:31.915Z,101916.17
2018-01-27T00:44:59.304Z,101905.64
2018-01-27T00:47:26.702Z,101916.73
2018-01-27T00:49:54.106Z,101914.72
2018-01-27T00:52:21.518Z,101909.33
2018-01-27T00:54:48.914Z,101911.67
2018-01-27T00:57:16.425Z,101918.86
2018-01-27T00:59:43.826Z,101901.34
2018-01-27T01:02:11.223Z,101903.30
2018-01-27T01:04:38.645Z,101910.66
2018-01-27T01:07:06.034Z,101907.11
2018-01-27T01:09:33.470Z,101902.09
2018-01-27T01:12:00.998Z,101911.48
2018-01-27T01:14:28.455Z,101910.31
2018-01-27T01:16:55.871Z,101923.75
2018-01-27T01:19:23.285Z,101929.77
2018-01-27T01:21:50.684Z,101929.02
2018-01-27T01:24:18.086Z,101924.19
2018-01-27T01:26:45.502Z,101931.52
2018-01-27T01:29:12.901Z,101930.23
2018-01-27T01:31:40.292Z,101931.30
2018-01-27T01:34:07.702Z,101932.88
2018-01-27T01:36:35.136Z,101930.03
2018-01-27T01:39:02.514Z,101939.38
2018-01-27T01:41:29.911Z,101939.88
2018-01-27T01:44:02.913Z,101947.00
2018-01-27T01:46:30.353Z,101948.91
2018-01-27T01:49:09.749Z,101946.28
2018-01-27T01:51:37.379Z,101946.56
2018-01-27T01:54:04.787Z,101949.09
2018-01-27T01:56:32.189Z,101940.95
2018-01-27T01:58:59.602Z,101942.36
2018-01-27T02:01:27.001Z,101947.09
2018-01-27T02:03:54.414Z,101945.39
2018-01-27T02:06:21.812Z,101943.27
2018-01-27T02:08:49.217Z,101938.48
2018-01-27T02:11:16.611Z,101944.14
2018-01-27T02:13:44.081Z,101945.08
2018-01-27T02:16:11.523Z,101945.22
2018-01-27T02:18:38.990Z,101942.14
2018-01-27T02:21:06.478Z,101941.38
2018-01-27T02:23:33.998Z,101935.79
2018-01-27T02:26:01.456Z,101940.27
2018-01-27T02:28:28.847Z,101940.41
2018-01-27T02:30:56.251Z,101932.27
2018-01-27T02:33:23.652Z,101943.58
2018-01-27T02:35:51.051Z,101939.28
2018-01-27T02:38:18.554Z,101933.69
2018-01-27T02:40:45.959Z,101936.19
2018-01-27T02:43:13.359Z,101939.73
2018-01-27T02:45:40.771Z,101939.20
2018-01-27T02:48:08.185Z,101941.45
2018-01-27T02:50:35.579Z,101947.70
2018-01-27T02:53:03.004Z,101943.52
2018-01-27T02:55:30.386Z,101940.03
2018-01-27T02:57:57.871Z,101943.27
2018-01-27T03:00:25.307Z,101946.19
2018-01-27T03:02:52.688Z,101948.11
2018-01-27T03:05:20.078Z,101952.66
2018-01-27T03:07:48.189Z,101953.58
2018-01-27T03:10:15.617Z,101960.56
2018-01-27T03:12:43.016Z,101960.38
2018-01-27T03:15:10.427Z,101963.34
2018-01-27T03:17:37.817Z,101964.69
2018-01-27T03:20:05.225Z,101965.75
2018-01-27T03:22:32.645Z,101960.88
2018-01-27T03:25:00.042Z,101971.09
2018-01-27T03:27:27.542Z,101969.45
2018-01-27T03:29:54.956Z,101973.88
2018-01-27T03:32:22.358Z,101970.49
2018-01-27T03:34:49.755Z,101986.66
2018-01-27T03:37:17.172Z,101982.20
2018-01-27T03:39:44.583Z,101988.95
2018-01-27T03:42:11.983Z,101992.98
2018-01-27T03:44:39.381Z,101985.72
2018-01-27T03:47:06.788Z,101990.23
2018-01-27T03:49:34.194Z,101992.52
2018-01-27T03:52:01.591Z,101999.61
2018-01-27T03:54:28.986Z,102010.61
2018-01-27T03:56:56.404Z,102005.14
2018-01-27T03:59:23.805Z,102012.87
2018-01-27T04:01:51.227Z,102017.25
2018-01-27T04:04:18.626Z,102017.31
2018-01-27T04:06:46.021Z,102016.37
2018-01-27T04:09:13.457Z,102019.30
2018-01-27T04:11:40.947Z,102026.11
2018-01-27T04:14:08.354Z,102033.16
2018-01-27T04:16:35.738Z,102033.05
2018-01-27T04:19:03.168Z,102032.06
2018-01-27T04:21:30.672Z,102030.32
2018-01-27T04:23:58.070Z,102028.20
2018-01-27T04:26:25.463Z,102033.55
2018-01-27T04:28:52.863Z,102033.94
2018-01-27T04:31:20.276Z,102036.11
2018-01-27T04:33:47.658Z,102037.53
2018-01-27T04:36:15.088Z,102036.11
2018-01-27T04:38:42.498Z,102039.17
2018-01-27T04:41:09.897Z,102037.75
2018-01-27T04:43:37.298Z,102043.77
2018-01-27T04:46:04.695Z,102043.94
2018-01-27T04:48:32.098Z,102049.44
2018-01-27T04:50:59.499Z,102056.67
2018-01-27T04:53:26.914Z,102050.45
2018-01-27T04:55:54.323Z,102055.88
2018-01-27T04:58:21.714Z,102061.13
2018-01-27T05:00:49.129Z,102064.37
2018-01-27T05:03:16.532Z,102072.48
2018-01-27T05:05:43.921Z,102079.24
2018-01-27T05:08:11.314Z,102079.23
2018-01-27T05:10:38.734Z,102075.27
2018-01-27T05:13:06.137Z,102077.09
2018-01-27T05:15:33.538Z,102085.84
2018-01-27T05:18:00.934Z,102080.50
2018-01-27T05:20:28.343Z,102086.73
2018-01-27T05:22:55.734Z,102091.65
2018-01-27T05:25:23.151Z,102095.48
2018-01-27T05:27:50.650Z,102099.45
2018-01-27T05:30:19.011Z,102103.58
2018-01-27T05:32:46.418Z,102105.79
2018-01-27T05:35:13.827Z,102114.75
2018-01-27T05:37:41.218Z,102115.58
2018-01-27T05:42:35.314Z,102127.38
2018-01-27T05:45:02.711Z,102128.81
2018-01-27T05:47:30.122Z,102125.67
2018-01-27T05:49:57.538Z,102126.47
2018-01-27T05:52:24.935Z,102132.95
2018-01-27T05:54:52.346Z,102130.59
2018-01-27T05:57:19.751Z,102134.36
2018-01-27T05:59:47.162Z,102132.05
2018-01-27T06:02:14.667Z,102131.50
2018-01-27T06:04:42.070Z,102144.56
2018-01-27T06:07:09.573Z,102138.96
2018-01-27T06:09:36.967Z,102140.84
2018-01-27T06:12:04.386Z,102148.77
2018-01-27T06:14:31.798Z,102143.44
2018-01-27T06:16:59.210Z,102152.50
2018-01-27T06:19:26.614Z,102148.50
2018-01-27T06:21:54.011Z,102150.64
2018-01-27T06:24:21.414Z,102143.38
2018-01-27T06:26:48.818Z,102149.29
2018-01-27T06:29:16.226Z,102152.37
2018-01-27T06:31:43.635Z,102157.94
2018-01-27T06:34:11.050Z,102155.28
2018-01-27T06:36:38.438Z,102151.50
2018-01-27T06:39:05.942Z,102149.29
2018-01-27T06:41:33.432Z,102149.53
2018-01-27T06:44:00.822Z,102154.50
2018-01-27T06:46:28.217Z,102158.84
2018-01-27T06:48:55.611Z,102165.64
2018-01-27T06:51:23.014Z,102165.27
2018-01-27T06:53:50.411Z,102170.78
2018-01-27T06:56:17.807Z,102171.45
2018-01-27T06:58:45.386Z,102162.18
2018-01-27T07:01:12.799Z,102165.61
2018-01-27T07:03:40.216Z,102173.69
2018-01-27T07:06:07.694Z,102164.91
2018-01-27T07:08:35.075Z,102167.52
2018-01-27T07:11:02.486Z,102167.45
2018-01-27T07:13:29.882Z,102172.79
2018-01-27T07:15:57.284Z,102172.73
2018-01-27T07:18:24.700Z,102175.66
2018-01-27T07:20:52.211Z,102171.94
2018-01-27T07:23:19.712Z,102179.43
2018-01-27T07:25:47.132Z,102174.94
2018-01-27T07:28:14.539Z,102179.57
2018-01-27T07:30:41.944Z,102168.65
2018-01-27T07:33:09.338Z,102179.28
2018-01-27T07:35:36.747Z,102185.61
2018-01-27T07:38:04.159Z,102193.89
2018-01-27T07:40:31.945Z,102200.30
2018-01-27T07:42:59.432Z,102201.80
2018-01-27T07:45:26.837Z,102201.39
2018-01-27T07:47:54.231Z,102209.20
2018-01-27T07:50:21.631Z,102212.88
2018-01-27T07:52:49.075Z,102213.13
2018-01-27T07:55:16.478Z,102205.51
2018-01-27T07:57:43.873Z,102213.45
2018-01-27T08:00:11.279Z,102214.20
2018-01-27T08:02:38.672Z,102216.35
2018-01-27T08:05:06.070Z,102225.39
2018-01-27T08:07:33.459Z,102229.20
2018-01-27T08:10:00.857Z,102227.92
2018-01-27T08:12:28.257Z,102228.72
2018-01-27T08:14:55.658Z,102233.87
2018-01-27T08:17:23.062Z,102234.71
2018-01-27T08:19:50.466Z,102239.56
2018-01-27T08:22:17.868Z,102243.30
2018-01-27T08:24:45.274Z,102246.38
2018-01-27T08:27:12.679Z,102238.36
2018-01-27T08:29:40.070Z,102241.02
2018-01-27T08:32:07.490Z,102240.41
2018-01-27T08:34:34.899Z,102238.20
2018-01-27T08:37:02.338Z,102242.70
2018-01-27T08:39:29.734Z,102236.01
2018-01-27T08:41:57.146Z,102235.33
2018-01-27T08:44:24.538Z,102233.15
2018-01-27T08:46:51.938Z,102238.24
2018-01-27T08:49:19.339Z,102234.06
2018-01-27T08:51:46.738Z,102232.98
2018-01-27T08:54:14.157Z,102234.15
2018-01-27T08:56:41.558Z,102231.06
2018-01-27T08:59:08.950Z,102228.95
2018-01-27T09:01:36.430Z,102242.55
2018-01-27T09:04:03.845Z,102242.05
2018-01-27T09:06:31.291Z,102247.63
2018-01-27T09:08:58.678Z,102246.98
2018-01-27T09:11:26.090Z,102243.98
2018-01-27T09:13:53.491Z,102244.05
2018-01-27T09:16:20.910Z,102249.08
2018-01-27T09:18:48.387Z,102253.09
2018-01-27T09:21:15.783Z,102259.44
2018-01-27T09:23:43.201Z,102257.21
2018-01-27T09:26:10.677Z,102260.07
2018-01-27T09:28:38.992Z,102265.25
2018-01-27T09:31:06.696Z,102269.12
2018-01-27T09:33:34.149Z,102270.44
2018-01-27T09:36:01.547Z,102263.52
2018-01-27T09:38:28.970Z,102264.35
2018-01-27T09:40:56.478Z,102263.20
2018-01-27T09:43:23.943Z,102271.56
2018-01-27T09:45:51.435Z,102274.59
2018-01-27T09:48:18.834Z,102277.98
2018-01-27T09:50:46.238Z,102271.38
2018-01-27T09:53:13.629Z,102264.19
2018-01-27T09:55:41.055Z,102265.04
2018-01-27T09:58:08.493Z,102270.58
2018-01-27T10:00:35.886Z,102284.08
2018-01-27T10:03:03.278Z,102284.97
2018-01-27T10:05:30.675Z,102289.41
2018-01-27T10:07:58.071Z,102289.59
2018-01-27T10:10:25.595Z,102284.64
2018-01-27T10:12:52.990Z,102291.38
2018-01-27T10:15:20.388Z,102291.64
2018-01-27T10:17:47.782Z,102287.31
2018-01-27T10:20:15.177Z,102282.28
2018-01-27T10:22:42.578Z,102275.84
2018-01-27T10:25:10.011Z,102279.22
2018-01-27T10:27:37.423Z,102264.62
2018-01-27T10:30:04.874Z,102270.91
2018-01-27T10:32:32.322Z,102264.19
2018-01-27T10:34:59.733Z,102260.30
2018-01-27T10:37:27.126Z,102254.33
2018-01-27T10:39:54.539Z,102253.19
2018-01-27T10:42:21.947Z,102249.05
2018-01-27T10:44:49.342Z,102250.99
2018-01-27T10:47:16.750Z,102254.55
2018-01-27T10:49:44.155Z,102259.87
2018-01-27T10:52:11.554Z,102253.59
2018-01-27T10:54:38.974Z,102259.55
2018-01-27T10:57:06.382Z,102262.46
2018-01-27T10:59:33.783Z,102264.36
2018-01-27T11:02:01.186Z,102263.67
2018-01-27T11:04:28.632Z,102260.91
2018-01-27T11:06:56.072Z,102259.39
2018-01-27T11:09:23.477Z,102265.08
2018-01-27T11:11:50.876Z,102260.22
2018-01-27T11:14:18.270Z,102249.34
2018-01-27T11:16:45.670Z,102245.34
2018-01-27T11:19:13.066Z,102248.84
2018-01-27T11:21:40.473Z,102251.66
2018-01-27T11:24:07.875Z,102256.98
2018-01-27T11:26:35.310Z,102247.98
2018-01-27T11:29:02.698Z,102248.61
2018-01-27T11:31:30.246Z,102247.84
2018-01-27T11:33:57.709Z,102245.53
2018-01-27T11:36:25.284Z,102245.61
2018-01-27T11:38:52.873Z,102234.88
2018-01-27T11:41:20.550Z,102242.97
2018-01-27T11:43:48.078Z,102247.19
2018-01-27T11:46:15.497Z,102242.53
2018-01-27T11:48:43.034Z,102238.30
2018-01-27T11:51:10.612Z,102239.85
2018-01-27T11:53:38.101Z,102246.38
2018-01-27T11:56:06.396Z,102233.58
2018-01-27T11:58:33.974Z,102225.25
2018-01-27T12:01:01.576Z,102228.98
2018-01-27T12:03:29.292Z,102230.27
2018-01-27T12:05:56.800Z,102226.67
2018-01-27T12:08:24.457Z,102230.50
2018-01-27T12:10:52.054Z,102224.84
2018-01-27T12:13:19.584Z,102219.25
2018-01-27T12:15:47.152Z,102210.55
2018-01-27T12:18:14.767Z,102226.31
2018-01-27T12:20:42.427Z,102224.59
2018-01-27T12:23:10.045Z,102216.50
2018-01-27T12:25:37.557Z,102212.97
2018-01-27T12:28:05.169Z,102215.05
2018-01-27T12:30:32.674Z,102222.56
2018-01-27T12:33:00.254Z,102219.83
2018-01-27T12:35:27.816Z,102214.55
2018-01-27T12:37:55.405Z,102218.94
2018-01-27T12:40:22.918Z,102210.61
2018-01-27T12:42:50.505Z,102204.76
2018-01-27T12:45:18.076Z,102197.83
2018-01-27T12:47:45.616Z,102198.30
2018-01-27T12:50:13.106Z,102200.31
2018-01-27T12:52:40.708Z,102193.21
2018-01-27T12:55:08.215Z,102193.83
2018-01-27T12:57:35.755Z,102197.75
2018-01-27T13:00:04.016Z,102187.23
2018-01-27T13:02:31.648Z,102182.79
2018-01-27T13:04:59.206Z,102192.36
2018-01-27T13:07:26.869Z,102190.03
2018-01-27T13:09:54.426Z,102190.00
2018-01-27T13:12:21.894Z,102191.22
2018-01-27T13:14:49.462Z,102194.84
2018-01-27T13:17:17.314Z,102187.96
2018-01-27T13:19:44.747Z,102190.88
2018-01-27T13:22:12.340Z,102186.52
2018-01-27T13:24:39.830Z,102175.22
2018-01-27T13:27:07.402Z,102166.88
2018-01-27T13:29:34.941Z,102171.75
2018-01-27T13:32:02.537Z,102176.63
2018-01-27T13:34:30.095Z,102179.85
2018-01-27T13:36:57.696Z,102169.05
2018-01-27T13:39:25.266Z,102170.57
2018-01-27T13:41:52.762Z,102163.98
2018-01-27T13:44:20.277Z,102156.77
2018-01-27T13:46:47.864Z,102155.95
2018-01-27T13:49:15.398Z,102161.86
2018-01-27T13:51:43.033Z,102160.69
2018-01-27T13:54:10.550Z,102141.92
2018-01-27T13:56:38.014Z,102154.59
2018-01-27T13:59:05.624Z,102150.47
2018-01-27T14:01:33.187Z,102149.08
2018-01-27T14:04:01.033Z,102151.33
2018-01-27T14:06:28.543Z,102150.02
2018-01-27T14:08:56.124Z,102158.37
2018-01-27T14:11:23.529Z,102159.95
2018-01-27T14:13:50.932Z,102161.98
2018-01-27T14:16:18.336Z,102164.35
2018-01-27T14:18:45.750Z,102165.89
2018-01-27T14:21:13.150Z,102166.81
2018-01-27T14:23:40.577Z,102167.28
2018-01-27T14:26:07.966Z,102180.66
2018-01-27T14:28:35.373Z,102164.50
2018-01-27T14:31:02.779Z,102167.92
2018-01-27T14:33:30.182Z,102166.89
2018-01-27T14:35:57.576Z,102174.72
2018-01-27T14:38:24.998Z,102179.85
2018-01-27T14:40:52.402Z,102184.80
2018-01-27T14:43:19.823Z,102186.22
2018-01-27T14:45:47.294Z,102188.55
2018-01-27T14:48:14.659Z,102177.65
2018-01-27T14:50:42.057Z,102178.97
2018-01-27T14:53:09.464Z,102173.11
2018-01-27T14:55:36.850Z,102162.34
2018-01-27T14:58:04.269Z,102148.66
2018-01-27T15:00:31.686Z,102141.29
2018-01-27T15:02:59.177Z,102149.59
2018-01-27T15:05:26.587Z,102137.90
2018-01-27T15:07:53.975Z,102138.81
2018-01-27T15:10:21.392Z,102118.64
2018-01-27T15:12:48.911Z,102113.04
2018-01-27T15:15:16.312Z,102116.06
2018-01-27T15:17:43.722Z,102106.54
2018-01-27T15:20:11.111Z,102102.69
2018-01-27T15:22:38.539Z,102102.98
2018-01-27T15:25:05.939Z,102104.34
2018-01-27T15:27:33.338Z,102094.61
2018-01-27T15:30:00.730Z,102099.52
2018-01-27T15:32:28.134Z,102096.06
2018-01-27T15:34:55.547Z,102103.97
2018-01-27T15:37:22.933Z,102110.70
2018-01-27T15:39:50.346Z,102105.59
2018-01-27T15:42:17.746Z,102112.09
2018-01-27T15:44:45.155Z,102107.61
2018-01-27T15:47:12.552Z,102095.28
2018-01-27T15:49:39.944Z,102102.63
2018-01-27T15:52:07.334Z,102100.80
2018-01-27T15:54:34.729Z,102095.59
2018-01-27T15:57:02.207Z,102094.45
2018-01-27T15:59:29.613Z,102091.48
2018-01-27T16:01:57.010Z,102084.90
2018-01-27T16:04:24.480Z,102076.12
2018-01-27T16:06:51.924Z,102080.69
2018-01-27T16:09:19.325Z,102090.05
2018-01-27T16:11:46.746Z,102098.31
2018-01-27T16:14:14.154Z,102089.75
2018-01-27T16:16:41.546Z,102082.78
2018-01-27T16:19:08.950Z,102086.33
2018-01-27T16:21:36.483Z,102082.03
2018-01-27T16:24:03.914Z,102083.16
2018-01-27T16:26:31.559Z,102073.59
2018-01-27T16:28:58.967Z,102065.92
2018-01-27T16:31:26.358Z,102053.23
2018-01-27T16:33:53.774Z,102059.78
2018-01-27T16:36:21.175Z,102050.15
2018-01-27T16:38:48.566Z,102047.80
2018-01-27T16:41:15.984Z,102047.36
2018-01-27T16:43:43.403Z,102046.08
2018-01-27T16:46:10.791Z,102055.19
2018-01-27T16:48:38.190Z,102054.60
2018-01-27T16:51:05.594Z,102051.95
2018-01-27T16:53:33.094Z,102052.05
2018-01-27T16:56:00.492Z,102074.15
2018-01-27T16:58:27.996Z,102062.61
2018-01-27T17:00:55.428Z,102064.13
2018-01-27T17:03:22.813Z,102055.48
2018-01-27T17:05:50.287Z,102035.20
2018-01-27T17:08:17.682Z,102012.55
2018-01-27T17:10:45.088Z,102013.27
2018-01-27T17:13:12.588Z,102001.20
2018-01-27T17:15:39.974Z,101995.20
2018-01-27T17:18:07.375Z,101983.06
2018-01-27T17:20:34.788Z,101972.03
2018-01-27T17:23:02.206Z,101978.54
2018-01-27T17:25:29.593Z,101988.59
2018-01-27T17:27:56.993Z,101988.91
2018-01-27T17:30:24.382Z,101990.00
2018-01-27T17:32:51.784Z,101988.70
2018-01-27T17:35:19.215Z,101963.55
2018-01-27T17:37:46.610Z,101956.81
2018-01-27T17:40:14.009Z,101958.34
2018-01-27T17:42:41.717Z,101949.97
2018-01-27T17:45:09.105Z,101941.66
2018-01-27T17:47:36.490Z,101945.98
2018-01-27T17:50:03.917Z,101943.89
2018-01-27T17:52:31.323Z,101933.77
2018-01-27T17:54:58.730Z,101916.09
2018-01-27T17:57:26.168Z,101908.59
2018-01-27T17:59:53.579Z,101905.24
2018-01-27T18:02:20.984Z,101893.45
2018-01-27T18:04:48.394Z,101906.66
2018-01-27T18:07:15.792Z,101919.45
2018-01-27T18:09:43.191Z,101921.84
2018-01-27T18:12:10.582Z,101931.25
2018-01-27T18:14:38.022Z,101930.95
2018-01-27T18:17:05.582Z,101918.81
2018-01-27T18:19:32.986Z,101917.91
2018-01-27T18:22:00.401Z,101913.52
2018-01-27T18:24:27.794Z,101914.96
2018-01-27T18:26:55.182Z,101907.28
2018-01-27T18:29:22.582Z,101913.91
2018-01-27T18:31:50.005Z,101913.00
2018-01-27T18:34:17.386Z,101905.81
2018-01-27T18:36:44.795Z,101902.84
2018-01-27T18:39:12.206Z,101889.66
2018-01-27T18:41:39.609Z,101884.92
2018-01-27T18:44:07.119Z,101875.75
2018-01-27T18:46:34.515Z,101866.59
2018-01-27T18:49:01.934Z,101857.86
2018-01-27T18:51:29.351Z,101852.44
2018-01-27T18:53:56.754Z,101842.53
2018-01-27T18:56:24.150Z,101841.28
2018-01-27T18:58:51.592Z,101839.53
2018-01-27T19:01:18.967Z,101850.41
2018-01-27T19:03:46.375Z,101854.63
2018-01-27T19:06:13.780Z,101843.47
2018-01-27T19:08:41.182Z,101830.52
2018-01-27T19:11:08.582Z,101815.91
2018-01-27T19:13:35.994Z,101806.28
2018-01-27T19:16:03.397Z,101798.53
2018-01-27T19:18:30.809Z,101792.27
2018-01-27T19:20:58.210Z,101799.53
2018-01-27T19:23:25.603Z,101801.73
2018-01-27T19:25:53.006Z,101806.02
2018-01-27T19:28:20.410Z,101788.86
2018-01-27T19:30:47.814Z,101786.17
2018-01-27T19:33:15.215Z,101773.00
2018-01-27T19:35:42.618Z,101814.88
2018-01-27T19:38:10.114Z,101800.58
2018-01-27T19:40:37.533Z,101780.23
2018-01-27T19:43:04.922Z,101780.83
2018-01-27T19:45:32.327Z,101760.78
2018-01-27T19:47:59.719Z,101753.01
2018-01-27T19:50:27.150Z,101740.03
2018-01-27T19:52:54.539Z,101719.33
2018-01-27T19:55:21.940Z,101709.13
2018-01-27T19:57:49.342Z,101725.23
2018-01-27T20:00:16.834Z,101719.75
2018-01-27T20:02:44.221Z,101710.59
2018-01-27T20:05:11.710Z,101711.86
2018-01-27T20:07:39.105Z,101715.75
2018-01-27T20:10:06.506Z,101700.88
2018-01-27T20:12:33.903Z,101730.46
2018-01-27T20:15:01.303Z,101733.69
2018-01-27T20:17:28.698Z,101766.03
2018-01-27T20:19:56.108Z,101738.52
2018-01-27T20:22:23.510Z,101743.64
2018-01-27T20:24:50.932Z,101719.11
2018-01-27T20:27:18.346Z,101713.39
2018-01-27T20:29:45.742Z,101700.84
2018-01-27T20:32:13.141Z,101694.09
2018-01-27T20:34:40.567Z,101701.60
2018-01-27T20:37:07.963Z,101705.84
2018-01-27T20:39:35.364Z,101701.86
2018-01-27T20:42:02.767Z,101697.52
2018-01-27T20:44:30.173Z,101698.99
2018-01-27T20:46:57.567Z,101682.86
2018-01-27T20:49:24.970Z,101672.25
2018-01-27T20:51:55.141Z,101674.95
2018-01-27T20:54:22.574Z,101662.27
2018-01-27T20:56:49.949Z,101676.48
2018-01-27T20:59:17.355Z,101682.66
2018-01-27T21:01:44.747Z,101686.07
2018-01-27T21:04:12.142Z,101676.45
2018-01-27T21:06:39.534Z,101673.42
2018-01-27T21:09:06.923Z,101669.59
2018-01-27T21:11:34.326Z,101670.91
2018-01-27T21:14:02.538Z,101661.27
2018-01-27T21:16:29.951Z,101660.31
2018-01-27T21:18:57.350Z,101657.86
2018-01-27T21:21:24.742Z,101654.59
2018-01-27T21:23:52.139Z,101656.66
2018-01-27T21:26:19.544Z,101641.38
2018-01-27T21:28:46.930Z,101645.14
2018-01-27T21:31:14.442Z,101658.44
2018-01-27T21:33:41.838Z,101652.56
2018-01-27T21:36:09.262Z,101636.22
2018-01-27T21:38:36.669Z,101634.23
2018-01-27T21:41:04.061Z,101624.95
2018-01-27T21:43:31.434Z,101620.03
2018-01-27T21:45:58.919Z,101642.14
2018-01-27T21:48:26.320Z,101631.06
2018-01-27T21:50:53.715Z,101642.68
2018-01-27T21:53:21.110Z,101630.79
2018-01-27T21:55:48.518Z,101628.45
2018-01-27T21:58:15.921Z,101632.48
2018-01-27T22:00:43.402Z,101634.61
2018-01-27T22:03:10.793Z,101638.83
2018-01-27T22:05:38.203Z,101637.13
2018-01-27T22:08:05.659Z,101635.27
2018-01-27T22:10:33.077Z,101628.93
2018-01-27T22:13:00.482Z,101628.92
2018-01-27T22:15:27.880Z,101623.29
2018-01-27T22:17:55.277Z,101619.59
2018-01-27T22:20:22.674Z,101605.98
2018-01-27T22:22:50.062Z,101607.05
2018-01-27T22:25:17.462Z,101607.27
2018-01-27T22:27:44.887Z,101609.91
2018-01-27T22:30:12.270Z,101605.66
2018-01-27T22:32:39.678Z,101608.56
2018-01-27T22:35:07.083Z,101613.47
2018-01-27T22:37:34.500Z,101609.78
2018-01-27T22:40:01.882Z,101621.20
2018-01-27T22:42:29.258Z,101607.15
2018-01-27T22:44:56.679Z,101581.33
2018-01-27T22:47:24.068Z,101605.05
2018-01-27T22:49:51.492Z,101600.36
2018-01-27T22:52:18.887Z,101599.97
2018-01-27T22:54:46.295Z,101602.14
2018-01-27T22:57:13.695Z,101580.89
2018-01-27T22:59:41.091Z,101568.16
2018-01-27T23:02:08.486Z,101575.55
2018-01-27T23:04:35.871Z,101572.25
2018-01-27T23:07:03.283Z,101575.96
2018-01-27T23:09:30.676Z,101569.70
2018-01-27T23:11:58.104Z,101576.91
2018-01-27T23:14:25.502Z,101578.12
2018-01-27T23:16:52.925Z,101564.55
2018-01-27T23:19:20.302Z,101563.46
2018-01-27T23:21:47.699Z,101549.23
2018-01-27T23:24:15.098Z,101551.36
2018-01-27T23:26:42.491Z,101556.57
2018-01-27T23:29:09.903Z,101568.19
2018-01-27T23:31:37.310Z,101559.27
2018-01-27T23:34:04.706Z,101548.77
2018-01-27T23:36:32.102Z,101537.55
2018-01-27T23:38:59.615Z,101540.40
2018-01-27T23:41:27.039Z,101531.70
2018-01-27T23:43:54.455Z,101533.64
2018-01-27T23:46:21.887Z,101543.26
2018-01-27T23:48:49.315Z,101530.62
2018-01-27T23:51:16.715Z,101538.44
2018-01-27T23:53:44.129Z,101530.56
2018-01-27T23:56:11.510Z,101526.76
2018-01-27T23:58:38.952Z,101521.45
